sensor_id;sensor_type;location;lat;lon;timestamp;temperature;humidity
64654;DHT22;51065;48.884;12.598;2022-10-17T00:00:47;12.30;99.90
64654;DHT22;51065;48.884;12.598;2022-10-17T00:03:13;12.10;99.90
64654;DHT22;51065;48.884;12.598;2022-10-17T00:05:44;12.00;99.90
64654;DHT22;51065;48.884;12.598;2022-10-17T00:08:11;11.80;99.90
64654;DHT22;51065;48.884;12.598;2022-10-17T00:10:38;11.70;99.90
64654;DHT22;51065;48.884;12.598;2022-10-17T00:13:04;11.70;99.90
64654;DHT22;51065;48.884;12.598;2022-10-17T00:15:31;11.50;99.90
64654;DHT22;51065;48.884;12.598;2022-10-17T00:17:57;11.40;99.90
64654;DHT22;51065;48.884;12.598;2022-10-17T00:20:23;11.40;99.90
64654;DHT22;51065;48.884;12.598;2022-10-17T00:22:49;11.30;99.90
64654;DHT22;51065;48.884;12.598;2022-10-17T00:25:15;11.20;99.90
64654;DHT22;51065;48.884;12.598;2022-10-17T00:27:41;11.10;99.90
64654;DHT22;51065;48.884;12.598;2022-10-17T00:30:10;11.00;99.90
64654;DHT22;51065;48.884;12.598;2022-10-17T00:32:36;11.00;99.90
64654;DHT22;51065;48.884;12.598;2022-10-17T00:35:02;11.00;99.90
64654;DHT22;51065;48.884;12.598;2022-10-17T00:37:29;10.90;99.90
64654;DHT22;51065;48.884;12.598;2022-10-17T00:39:55;10.90;99.90
64654;DHT22;51065;48.884;12.598;2022-10-17T00:42:21;10.80;99.90
64654;DHT22;51065;48.884;12.598;2022-10-17T00:47:17;10.70;99.90
64654;DHT22;51065;48.884;12.598;2022-10-17T00:49:44;10.70;99.90
64654;DHT22;51065;48.884;12.598;2022-10-17T00:52:20;10.70;99.90
64654;DHT22;51065;48.884;12.598;2022-10-17T00:54:55;10.70;99.90
64654;DHT22;51065;48.884;12.598;2022-10-17T00:57:22;10.70;99.90
64654;DHT22;51065;48.884;12.598;2022-10-17T00:59:52;10.80;99.90
64654;DHT22;51065;48.884;12.598;2022-10-17T01:02:19;10.80;99.90
64654;DHT22;51065;48.884;12.598;2022-10-17T01:04:48;10.80;99.90
64654;DHT22;51065;48.884;12.598;2022-10-17T01:07:14;10.80;99.90
64654;DHT22;51065;48.884;12.598;2022-10-17T01:09:42;10.80;99.90
64654;DHT22;51065;48.884;12.598;2022-10-17T01:25:51;10.50;99.90
64654;DHT22;51065;48.884;12.598;2022-10-17T01:38:52;10.90;99.90
64654;DHT22;51065;48.884;12.598;2022-10-17T01:41:40;10.90;99.90
64654;DHT22;51065;48.884;12.598;2022-10-17T01:44:15;10.90;99.90
64654;DHT22;51065;48.884;12.598;2022-10-17T01:46:56;10.90;99.90
64654;DHT22;51065;48.884;12.598;2022-10-17T01:49:26;10.90;99.90
64654;DHT22;51065;48.884;12.598;2022-10-17T01:51:58;10.80;99.90
64654;DHT22;51065;48.884;12.598;2022-10-17T01:57:26;10.80;99.90
64654;DHT22;51065;48.884;12.598;2022-10-17T01:59:54;10.80;99.90
64654;DHT22;51065;48.884;12.598;2022-10-17T02:02:20;10.80;99.90
64654;DHT22;51065;48.884;12.598;2022-10-17T02:04:49;10.90;99.90
64654;DHT22;51065;48.884;12.598;2022-10-17T02:07:15;10.90;99.90
64654;DHT22;51065;48.884;12.598;2022-10-17T02:09:41;10.90;99.90
64654;DHT22;51065;48.884;12.598;2022-10-17T02:15:39;10.80;99.90
64654;DHT22;51065;48.884;12.598;2022-10-17T02:21:20;10.70;99.90
64654;DHT22;51065;48.884;12.598;2022-10-17T02:23:57;10.70;99.90
64654;DHT22;51065;48.884;12.598;2022-10-17T02:26:32;10.70;99.90
64654;DHT22;51065;48.884;12.598;2022-10-17T02:29:25;10.80;99.90
64654;DHT22;51065;48.884;12.598;2022-10-17T02:32:09;10.80;99.90
64654;DHT22;51065;48.884;12.598;2022-10-17T02:34:42;10.80;99.90
64654;DHT22;51065;48.884;12.598;2022-10-17T02:37:10;10.70;99.90
64654;DHT22;51065;48.884;12.598;2022-10-17T02:39:39;10.60;99.90
64654;DHT22;51065;48.884;12.598;2022-10-17T02:42:08;10.60;99.90
64654;DHT22;51065;48.884;12.598;2022-10-17T02:44:37;10.60;99.90
64654;DHT22;51065;48.884;12.598;2022-10-17T02:49:39;10.50;99.90
64654;DHT22;51065;48.884;12.598;2022-10-17T02:52:16;10.40;99.90
64654;DHT22;51065;48.884;12.598;2022-10-17T02:55:02;10.30;99.90
64654;DHT22;51065;48.884;12.598;2022-10-17T02:57:36;10.20;99.90
64654;DHT22;51065;48.884;12.598;2022-10-17T03:00:06;10.10;99.90
64654;DHT22;51065;48.884;12.598;2022-10-17T03:02:48;10.10;99.90
64654;DHT22;51065;48.884;12.598;2022-10-17T03:05:22;10.00;99.90
64654;DHT22;51065;48.884;12.598;2022-10-17T03:07:48;10.00;99.90
64654;DHT22;51065;48.884;12.598;2022-10-17T03:10:14;10.00;99.90
64654;DHT22;51065;48.884;12.598;2022-10-17T03:12:39;10.00;99.90
64654;DHT22;51065;48.884;12.598;2022-10-17T03:15:05;10.00;99.90
64654;DHT22;51065;48.884;12.598;2022-10-17T03:17:31;9.90;99.90
64654;DHT22;51065;48.884;12.598;2022-10-17T03:19:57;9.80;99.90
64654;DHT22;51065;48.884;12.598;2022-10-17T03:22:23;9.70;99.90
64654;DHT22;51065;48.884;12.598;2022-10-17T03:24:48;9.70;99.90
64654;DHT22;51065;48.884;12.598;2022-10-17T03:27:14;9.70;99.90
64654;DHT22;51065;48.884;12.598;2022-10-17T03:29:39;9.60;99.90
64654;DHT22;51065;48.884;12.598;2022-10-17T03:32:05;9.50;99.90
64654;DHT22;51065;48.884;12.598;2022-10-17T03:34:30;9.50;99.90
64654;DHT22;51065;48.884;12.598;2022-10-17T03:36:56;9.50;99.90
64654;DHT22;51065;48.884;12.598;2022-10-17T03:39:22;9.60;99.90
64654;DHT22;51065;48.884;12.598;2022-10-17T03:41:47;9.70;99.90
64654;DHT22;51065;48.884;12.598;2022-10-17T03:44:13;9.80;99.90
64654;DHT22;51065;48.884;12.598;2022-10-17T03:46:39;9.80;99.90
64654;DHT22;51065;48.884;12.598;2022-10-17T03:49:04;9.90;99.90
64654;DHT22;51065;48.884;12.598;2022-10-17T03:51:32;9.80;99.90
64654;DHT22;51065;48.884;12.598;2022-10-17T03:53:57;9.80;99.90
64654;DHT22;51065;48.884;12.598;2022-10-17T03:56:24;9.70;99.90
64654;DHT22;51065;48.884;12.598;2022-10-17T03:58:50;9.70;99.90
64654;DHT22;51065;48.884;12.598;2022-10-17T04:01:16;9.70;99.90
64654;DHT22;51065;48.884;12.598;2022-10-17T04:03:43;9.70;99.90
64654;DHT22;51065;48.884;12.598;2022-10-17T04:06:11;9.60;99.90
64654;DHT22;51065;48.884;12.598;2022-10-17T04:08:37;9.50;99.90
64654;DHT22;51065;48.884;12.598;2022-10-17T04:11:05;9.50;99.90
64654;DHT22;51065;48.884;12.598;2022-10-17T04:13:31;9.40;99.90
64654;DHT22;51065;48.884;12.598;2022-10-17T04:16:06;9.60;99.90
64654;DHT22;51065;48.884;12.598;2022-10-17T04:18:32;9.50;99.90
64654;DHT22;51065;48.884;12.598;2022-10-17T04:21:00;9.40;99.90
64654;DHT22;51065;48.884;12.598;2022-10-17T04:23:27;9.30;99.90
64654;DHT22;51065;48.884;12.598;2022-10-17T04:25:57;9.30;99.90
64654;DHT22;51065;48.884;12.598;2022-10-17T04:28:24;9.20;99.90
64654;DHT22;51065;48.884;12.598;2022-10-17T04:33:25;9.00;99.90
64654;DHT22;51065;48.884;12.598;2022-10-17T04:36:05;9.00;99.90
64654;DHT22;51065;48.884;12.598;2022-10-17T04:38:31;8.90;99.90
64654;DHT22;51065;48.884;12.598;2022-10-17T04:40:57;8.90;99.90
64654;DHT22;51065;48.884;12.598;2022-10-17T04:43:24;9.00;99.90
64654;DHT22;51065;48.884;12.598;2022-10-17T04:45:50;9.00;99.90
64654;DHT22;51065;48.884;12.598;2022-10-17T04:48:15;9.00;99.90
64654;DHT22;51065;48.884;12.598;2022-10-17T04:50:41;9.00;99.90
64654;DHT22;51065;48.884;12.598;2022-10-17T04:53:06;9.00;99.90
64654;DHT22;51065;48.884;12.598;2022-10-17T04:55:36;9.00;99.90
64654;DHT22;51065;48.884;12.598;2022-10-17T04:58:02;8.90;99.90
64654;DHT22;51065;48.884;12.598;2022-10-17T05:00:28;8.90;99.90
64654;DHT22;51065;48.884;12.598;2022-10-17T05:02:53;8.90;99.90
64654;DHT22;51065;48.884;12.598;2022-10-17T05:05:19;8.80;99.90
64654;DHT22;51065;48.884;12.598;2022-10-17T05:07:44;8.80;99.90
64654;DHT22;51065;48.884;12.598;2022-10-17T05:10:10;8.80;99.90
64654;DHT22;51065;48.884;12.598;2022-10-17T05:12:35;8.80;99.90
64654;DHT22;51065;48.884;12.598;2022-10-17T05:15:01;8.90;99.90
64654;DHT22;51065;48.884;12.598;2022-10-17T05:17:27;8.80;99.90
64654;DHT22;51065;48.884;12.598;2022-10-17T05:19:52;8.80;99.90
64654;DHT22;51065;48.884;12.598;2022-10-17T05:22:18;8.80;99.90
64654;DHT22;51065;48.884;12.598;2022-10-17T05:24:43;8.80;99.90
64654;DHT22;51065;48.884;12.598;2022-10-17T05:27:09;8.80;99.90
64654;DHT22;51065;48.884;12.598;2022-10-17T05:29:34;8.80;99.90
64654;DHT22;51065;48.884;12.598;2022-10-17T05:32:00;8.70;99.90
64654;DHT22;51065;48.884;12.598;2022-10-17T05:34:25;8.70;99.90
64654;DHT22;51065;48.884;12.598;2022-10-17T05:36:51;8.70;99.90
64654;DHT22;51065;48.884;12.598;2022-10-17T05:39:17;8.70;99.90
64654;DHT22;51065;48.884;12.598;2022-10-17T05:41:44;8.70;99.90
64654;DHT22;51065;48.884;12.598;2022-10-17T05:44:10;8.70;99.90
64654;DHT22;51065;48.884;12.598;2022-10-17T05:46:36;8.80;99.90
64654;DHT22;51065;48.884;12.598;2022-10-17T05:49:02;8.90;99.90
64654;DHT22;51065;48.884;12.598;2022-10-17T05:51:27;8.90;99.90
64654;DHT22;51065;48.884;12.598;2022-10-17T05:53:53;8.90;99.90
64654;DHT22;51065;48.884;12.598;2022-10-17T05:56:19;8.90;99.90
64654;DHT22;51065;48.884;12.598;2022-10-17T05:58:44;8.90;99.90
64654;DHT22;51065;48.884;12.598;2022-10-17T06:01:11;9.00;99.90
64654;DHT22;51065;48.884;12.598;2022-10-17T06:03:37;9.00;99.90
64654;DHT22;51065;48.884;12.598;2022-10-17T06:06:05;9.10;99.90
64654;DHT22;51065;48.884;12.598;2022-10-17T06:08:32;9.10;99.90
64654;DHT22;51065;48.884;12.598;2022-10-17T06:10:57;9.10;99.90
64654;DHT22;51065;48.884;12.598;2022-10-17T06:13:23;9.20;99.90
64654;DHT22;51065;48.884;12.598;2022-10-17T06:15:48;9.40;99.90
64654;DHT22;51065;48.884;12.598;2022-10-17T06:18:14;9.50;99.90
64654;DHT22;51065;48.884;12.598;2022-10-17T06:20:40;9.80;99.90
64654;DHT22;51065;48.884;12.598;2022-10-17T06:23:05;10.20;99.90
64654;DHT22;51065;48.884;12.598;2022-10-17T06:25:32;10.50;99.90
64654;DHT22;51065;48.884;12.598;2022-10-17T06:27:57;10.90;99.90
64654;DHT22;51065;48.884;12.598;2022-10-17T06:30:23;11.30;99.90
64654;DHT22;51065;48.884;12.598;2022-10-17T06:32:50;11.50;99.90
64654;DHT22;51065;48.884;12.598;2022-10-17T06:35:15;11.70;99.90
64654;DHT22;51065;48.884;12.598;2022-10-17T06:37:41;11.80;99.90
64654;DHT22;51065;48.884;12.598;2022-10-17T06:40:07;11.90;99.90
64654;DHT22;51065;48.884;12.598;2022-10-17T06:42:34;12.10;99.90
64654;DHT22;51065;48.884;12.598;2022-10-17T06:45:00;12.50;99.90
64654;DHT22;51065;48.884;12.598;2022-10-17T06:47:25;12.90;99.90
64654;DHT22;51065;48.884;12.598;2022-10-17T06:49:51;13.20;99.90
64654;DHT22;51065;48.884;12.598;2022-10-17T06:52:17;13.40;99.90
64654;DHT22;51065;48.884;12.598;2022-10-17T06:54:43;13.60;99.90
64654;DHT22;51065;48.884;12.598;2022-10-17T06:57:09;13.90;99.90
64654;DHT22;51065;48.884;12.598;2022-10-17T06:59:35;14.10;99.90
64654;DHT22;51065;48.884;12.598;2022-10-17T07:02:01;14.30;99.90
64654;DHT22;51065;48.884;12.598;2022-10-17T07:04:27;14.60;99.90
64654;DHT22;51065;48.884;12.598;2022-10-17T07:06:52;15.10;99.90
64654;DHT22;51065;48.884;12.598;2022-10-17T07:09:18;15.60;99.90
64654;DHT22;51065;48.884;12.598;2022-10-17T07:11:44;15.80;99.90
64654;DHT22;51065;48.884;12.598;2022-10-17T07:14:09;16.00;99.90
64654;DHT22;51065;48.884;12.598;2022-10-17T07:16:35;15.70;99.90
64654;DHT22;51065;48.884;12.598;2022-10-17T07:19:01;15.80;99.90
64654;DHT22;51065;48.884;12.598;2022-10-17T07:21:26;16.20;99.90
64654;DHT22;51065;48.884;12.598;2022-10-17T07:23:52;16.20;99.90
64654;DHT22;51065;48.884;12.598;2022-10-17T07:26:18;16.00;99.90
64654;DHT22;51065;48.884;12.598;2022-10-17T07:28:46;16.10;99.90
64654;DHT22;51065;48.884;12.598;2022-10-17T07:31:15;16.20;99.90
64654;DHT22;51065;48.884;12.598;2022-10-17T07:33:42;16.20;99.90
64654;DHT22;51065;48.884;12.598;2022-10-17T07:36:08;16.00;99.90
64654;DHT22;51065;48.884;12.598;2022-10-17T07:38:34;16.30;99.90
64654;DHT22;51065;48.884;12.598;2022-10-17T07:41:02;16.70;99.90
64654;DHT22;51065;48.884;12.598;2022-10-17T07:43:28;17.10;99.90
64654;DHT22;51065;48.884;12.598;2022-10-17T07:45:54;17.00;99.90
64654;DHT22;51065;48.884;12.598;2022-10-17T07:48:21;17.10;99.90
64654;DHT22;51065;48.884;12.598;2022-10-17T07:50:47;17.20;99.90
64654;DHT22;51065;48.884;12.598;2022-10-17T07:53:13;17.40;99.90
64654;DHT22;51065;48.884;12.598;2022-10-17T07:55:40;17.50;99.90
64654;DHT22;51065;48.884;12.598;2022-10-17T07:58:06;17.50;99.90
64654;DHT22;51065;48.884;12.598;2022-10-17T08:00:33;18.10;99.90
64654;DHT22;51065;48.884;12.598;2022-10-17T08:02:59;17.70;99.90
64654;DHT22;51065;48.884;12.598;2022-10-17T08:05:24;17.60;99.90
64654;DHT22;51065;48.884;12.598;2022-10-17T08:07:50;17.60;99.90
64654;DHT22;51065;48.884;12.598;2022-10-17T08:10:15;17.70;99.90
64654;DHT22;51065;48.884;12.598;2022-10-17T08:12:41;18.00;99.90
64654;DHT22;51065;48.884;12.598;2022-10-17T08:15:08;18.30;99.90
64654;DHT22;51065;48.884;12.598;2022-10-17T08:17:35;18.30;99.90
64654;DHT22;51065;48.884;12.598;2022-10-17T08:20:01;18.10;99.90
64654;DHT22;51065;48.884;12.598;2022-10-17T08:22:26;18.40;99.90
64654;DHT22;51065;48.884;12.598;2022-10-17T08:24:52;18.50;99.90
64654;DHT22;51065;48.884;12.598;2022-10-17T08:27:17;18.40;99.90
64654;DHT22;51065;48.884;12.598;2022-10-17T08:29:48;18.10;99.90
64654;DHT22;51065;48.884;12.598;2022-10-17T08:32:18;17.70;99.90
64654;DHT22;51065;48.884;12.598;2022-10-17T08:34:44;18.00;99.90
64654;DHT22;51065;48.884;12.598;2022-10-17T08:37:09;18.30;99.90
64654;DHT22;51065;48.884;12.598;2022-10-17T08:39:35;18.60;99.90
64654;DHT22;51065;48.884;12.598;2022-10-17T08:45:09;18.60;99.80
64654;DHT22;51065;48.884;12.598;2022-10-17T08:48:00;19.00;98.30
64654;DHT22;51065;48.884;12.598;2022-10-17T08:50:45;19.20;94.30
64654;DHT22;51065;48.884;12.598;2022-10-17T08:53:45;19.40;93.70
64654;DHT22;51065;48.884;12.598;2022-10-17T08:58:46;19.30;92.90
64654;DHT22;51065;48.884;12.598;2022-10-17T09:01:35;18.80;95.40
64654;DHT22;51065;48.884;12.598;2022-10-17T09:23:01;20.20;90.70
64654;DHT22;51065;48.884;12.598;2022-10-17T09:25:41;20.30;88.80
64654;DHT22;51065;48.884;12.598;2022-10-17T09:28:24;20.80;85.00
64654;DHT22;51065;48.884;12.598;2022-10-17T09:33:32;20.70;82.60
64654;DHT22;51065;48.884;12.598;2022-10-17T09:35:59;20.70;81.10
64654;DHT22;51065;48.884;12.598;2022-10-17T09:38:37;20.80;81.50
64654;DHT22;51065;48.884;12.598;2022-10-17T09:41:09;20.70;79.20
64654;DHT22;51065;48.884;12.598;2022-10-17T09:43:38;19.80;84.80
64654;DHT22;51065;48.884;12.598;2022-10-17T09:46:22;19.90;85.10
64654;DHT22;51065;48.884;12.598;2022-10-17T09:48:59;20.00;87.70
64654;DHT22;51065;48.884;12.598;2022-10-17T09:51:26;20.60;84.40
64654;DHT22;51065;48.884;12.598;2022-10-17T09:53:59;20.80;82.60
64654;DHT22;51065;48.884;12.598;2022-10-17T09:56:25;21.50;77.30
64654;DHT22;51065;48.884;12.598;2022-10-17T09:58:56;21.90;78.20
64654;DHT22;51065;48.884;12.598;2022-10-17T10:03:49;22.50;72.00
64654;DHT22;51065;48.884;12.598;2022-10-17T10:06:32;22.70;71.10
64654;DHT22;51065;48.884;12.598;2022-10-17T10:08:58;22.30;72.90
64654;DHT22;51065;48.884;12.598;2022-10-17T10:11:55;22.80;68.80
64654;DHT22;51065;48.884;12.598;2022-10-17T10:14:28;22.70;68.60
64654;DHT22;51065;48.884;12.598;2022-10-17T10:16:58;22.80;69.20
64654;DHT22;51065;48.884;12.598;2022-10-17T10:19:35;22.70;70.20
64654;DHT22;51065;48.884;12.598;2022-10-17T10:22:27;22.40;71.30
64654;DHT22;51065;48.884;12.598;2022-10-17T10:25:14;22.30;70.80
64654;DHT22;51065;48.884;12.598;2022-10-17T10:27:42;22.00;72.80
64654;DHT22;51065;48.884;12.598;2022-10-17T10:30:24;22.30;72.60
64654;DHT22;51065;48.884;12.598;2022-10-17T10:32:50;23.10;69.80
64654;DHT22;51065;48.884;12.598;2022-10-17T10:35:34;23.80;66.50
64654;DHT22;51065;48.884;12.598;2022-10-17T10:38:07;23.80;66.50
64654;DHT22;51065;48.884;12.598;2022-10-17T10:40:38;24.40;64.40
64654;DHT22;51065;48.884;12.598;2022-10-17T10:46:02;23.60;66.60
64654;DHT22;51065;48.884;12.598;2022-10-17T10:48:34;23.20;67.50
64654;DHT22;51065;48.884;12.598;2022-10-17T10:51:11;23.60;67.30
64654;DHT22;51065;48.884;12.598;2022-10-17T10:59:21;24.30;65.20
64654;DHT22;51065;48.884;12.598;2022-10-17T11:04:51;25.00;63.30
64654;DHT22;51065;48.884;12.598;2022-10-17T11:07:42;25.50;61.40
64654;DHT22;51065;48.884;12.598;2022-10-17T11:12:47;24.90;63.80
64654;DHT22;51065;48.884;12.598;2022-10-17T11:20:28;25.40;61.20
64654;DHT22;51065;48.884;12.598;2022-10-17T11:23:09;25.90;60.70
64654;DHT22;51065;48.884;12.598;2022-10-17T11:25:39;26.20;56.40
64654;DHT22;51065;48.884;12.598;2022-10-17T11:28:13;26.50;57.00
64654;DHT22;51065;48.884;12.598;2022-10-17T11:30:57;26.30;57.80
64654;DHT22;51065;48.884;12.598;2022-10-17T11:33:46;26.40;56.70
64654;DHT22;51065;48.884;12.598;2022-10-17T11:36:15;27.00;56.80
64654;DHT22;51065;48.884;12.598;2022-10-17T11:38:51;26.10;57.90
64654;DHT22;51065;48.884;12.598;2022-10-17T11:41:45;26.10;57.80
64654;DHT22;51065;48.884;12.598;2022-10-17T11:44:35;26.60;56.60
64654;DHT22;51065;48.884;12.598;2022-10-17T11:49:57;27.30;54.80
64654;DHT22;51065;48.884;12.598;2022-10-17T11:55:04;27.10;54.60
64654;DHT22;51065;48.884;12.598;2022-10-17T12:09:22;26.70;54.90
64654;DHT22;51065;48.884;12.598;2022-10-17T12:11:57;27.50;53.50
64654;DHT22;51065;48.884;12.598;2022-10-17T12:22:47;28.00;53.70
64654;DHT22;51065;48.884;12.598;2022-10-17T12:25:21;28.10;52.30
64654;DHT22;51065;48.884;12.598;2022-10-17T12:27:49;27.30;54.50
64654;DHT22;51065;48.884;12.598;2022-10-17T12:30:21;26.90;53.50
64654;DHT22;51065;48.884;12.598;2022-10-17T12:33:10;26.70;54.90
64654;DHT22;51065;48.884;12.598;2022-10-17T12:35:39;26.40;55.00
64654;DHT22;51065;48.884;12.598;2022-10-17T12:45:55;25.50;57.80
64654;DHT22;51065;48.884;12.598;2022-10-17T12:51:10;24.90;59.80
64654;DHT22;51065;48.884;12.598;2022-10-17T12:54:28;24.50;59.40
64654;DHT22;51065;48.884;12.598;2022-10-17T12:56:41;24.40;61.30
64654;DHT22;51065;48.884;12.598;2022-10-17T12:59:19;24.10;59.40
64654;DHT22;51065;48.884;12.598;2022-10-17T13:01:48;24.10;61.10
64654;DHT22;51065;48.884;12.598;2022-10-17T13:04:15;24.10;60.60
64654;DHT22;51065;48.884;12.598;2022-10-17T13:07:00;24.00;60.60
64654;DHT22;51065;48.884;12.598;2022-10-17T13:09:28;24.10;58.70
64654;DHT22;51065;48.884;12.598;2022-10-17T13:11:56;23.80;61.40
64654;DHT22;51065;48.884;12.598;2022-10-17T13:14:23;23.70;61.80
64654;DHT22;51065;48.884;12.598;2022-10-17T13:16:58;23.40;62.70
64654;DHT22;51065;48.884;12.598;2022-10-17T13:19:44;23.30;62.30
64654;DHT22;51065;48.884;12.598;2022-10-17T13:22:17;23.50;62.20
64654;DHT22;51065;48.884;12.598;2022-10-17T13:24:44;23.60;61.60
64654;DHT22;51065;48.884;12.598;2022-10-17T13:27:29;23.90;60.50
64654;DHT22;51065;48.884;12.598;2022-10-17T13:29:57;23.70;60.40
64654;DHT22;51065;48.884;12.598;2022-10-17T13:32:24;24.10;60.50
64654;DHT22;51065;48.884;12.598;2022-10-17T13:37:34;23.90;61.30
64654;DHT22;51065;48.884;12.598;2022-10-17T13:40:01;23.20;62.10
64654;DHT22;51065;48.884;12.598;2022-10-17T13:42:36;23.00;64.20
64654;DHT22;51065;48.884;12.598;2022-10-17T13:45:04;23.00;63.50
64654;DHT22;51065;48.884;12.598;2022-10-17T13:47:36;23.10;63.60
64654;DHT22;51065;48.884;12.598;2022-10-17T13:50:04;23.10;65.20
64654;DHT22;51065;48.884;12.598;2022-10-17T13:52:30;23.30;63.50
64654;DHT22;51065;48.884;12.598;2022-10-17T13:55:07;23.50;63.40
64654;DHT22;51065;48.884;12.598;2022-10-17T13:57:32;23.70;63.00
64654;DHT22;51065;48.884;12.598;2022-10-17T13:59:59;23.60;63.30
64654;DHT22;51065;48.884;12.598;2022-10-17T14:02:27;23.30;65.10
64654;DHT22;51065;48.884;12.598;2022-10-17T14:05:19;22.70;65.90
64654;DHT22;51065;48.884;12.598;2022-10-17T14:08:02;22.20;67.90
64654;DHT22;51065;48.884;12.598;2022-10-17T14:10:39;21.60;70.50
64654;DHT22;51065;48.884;12.598;2022-10-17T14:13:06;21.50;73.60
64654;DHT22;51065;48.884;12.598;2022-10-17T14:15:36;21.20;75.50
64654;DHT22;51065;48.884;12.598;2022-10-17T14:18:04;21.20;77.60
64654;DHT22;51065;48.884;12.598;2022-10-17T14:20:32;21.10;77.60
64654;DHT22;51065;48.884;12.598;2022-10-17T14:22:59;21.10;76.90
64654;DHT22;51065;48.884;12.598;2022-10-17T14:25:37;21.00;77.40
64654;DHT22;51065;48.884;12.598;2022-10-17T14:30:37;20.70;82.20
64654;DHT22;51065;48.884;12.598;2022-10-17T14:33:27;20.60;83.00
64654;DHT22;51065;48.884;12.598;2022-10-17T14:35:52;20.50;83.50
64654;DHT22;51065;48.884;12.598;2022-10-17T14:38:18;20.60;85.10
64654;DHT22;51065;48.884;12.598;2022-10-17T14:40:58;20.50;86.20
64654;DHT22;51065;48.884;12.598;2022-10-17T14:43:28;20.40;89.60
64654;DHT22;51065;48.884;12.598;2022-10-17T14:46:01;20.30;89.80
64654;DHT22;51065;48.884;12.598;2022-10-17T14:48:28;20.30;90.60
64654;DHT22;51065;48.884;12.598;2022-10-17T14:51:17;20.30;91.80
64654;DHT22;51065;48.884;12.598;2022-10-17T14:53:58;20.20;92.40
64654;DHT22;51065;48.884;12.598;2022-10-17T14:56:26;20.10;92.10
64654;DHT22;51065;48.884;12.598;2022-10-17T14:58:52;20.10;92.10
64654;DHT22;51065;48.884;12.598;2022-10-17T15:01:18;20.10;91.60
64654;DHT22;51065;48.884;12.598;2022-10-17T15:03:44;20.00;91.90
64654;DHT22;51065;48.884;12.598;2022-10-17T15:06:25;20.00;92.60
64654;DHT22;51065;48.884;12.598;2022-10-17T15:08:51;20.00;92.60
64654;DHT22;51065;48.884;12.598;2022-10-17T15:11:16;19.80;93.60
64654;DHT22;51065;48.884;12.598;2022-10-17T15:13:42;19.80;94.10
64654;DHT22;51065;48.884;12.598;2022-10-17T15:16:25;19.70;94.90
64654;DHT22;51065;48.884;12.598;2022-10-17T15:18:52;19.80;96.10
64654;DHT22;51065;48.884;12.598;2022-10-17T15:21:22;19.80;96.10
64654;DHT22;51065;48.884;12.598;2022-10-17T15:23:48;20.00;96.30
64654;DHT22;51065;48.884;12.598;2022-10-17T15:26:25;20.10;95.40
64654;DHT22;51065;48.884;12.598;2022-10-17T15:28:51;20.00;95.50
64654;DHT22;51065;48.884;12.598;2022-10-17T15:31:19;19.80;94.80
64654;DHT22;51065;48.884;12.598;2022-10-17T15:33:45;19.70;96.60
64654;DHT22;51065;48.884;12.598;2022-10-17T15:36:24;19.60;98.00
64654;DHT22;51065;48.884;12.598;2022-10-17T15:38:52;19.50;99.50
64654;DHT22;51065;48.884;12.598;2022-10-17T15:41:20;19.30;99.90
64654;DHT22;51065;48.884;12.598;2022-10-17T15:43:47;19.20;99.90
64654;DHT22;51065;48.884;12.598;2022-10-17T15:46:18;19.00;99.90
64654;DHT22;51065;48.884;12.598;2022-10-17T15:48:44;18.80;99.90
64654;DHT22;51065;48.884;12.598;2022-10-17T15:51:10;18.70;99.90
64654;DHT22;51065;48.884;12.598;2022-10-17T15:53:35;18.60;99.90
64654;DHT22;51065;48.884;12.598;2022-10-17T15:56:02;18.60;99.90
64654;DHT22;51065;48.884;12.598;2022-10-17T15:58:34;18.40;99.90
64654;DHT22;51065;48.884;12.598;2022-10-17T16:01:01;18.10;99.90
64654;DHT22;51065;48.884;12.598;2022-10-17T16:03:27;17.80;99.90
64654;DHT22;51065;48.884;12.598;2022-10-17T16:05:54;17.50;99.90
64654;DHT22;51065;48.884;12.598;2022-10-17T16:08:20;17.20;99.90
64654;DHT22;51065;48.884;12.598;2022-10-17T16:10:46;17.00;99.90
64654;DHT22;51065;48.884;12.598;2022-10-17T16:13:19;16.70;99.90
64654;DHT22;51065;48.884;12.598;2022-10-17T16:15:45;16.50;99.90
64654;DHT22;51065;48.884;12.598;2022-10-17T16:18:11;16.30;99.90
64654;DHT22;51065;48.884;12.598;2022-10-17T16:20:37;16.10;99.90
64654;DHT22;51065;48.884;12.598;2022-10-17T16:23:04;15.90;99.90
64654;DHT22;51065;48.884;12.598;2022-10-17T16:25:30;15.70;99.90
64654;DHT22;51065;48.884;12.598;2022-10-17T16:27:57;15.60;99.90
64654;DHT22;51065;48.884;12.598;2022-10-17T16:30:25;15.30;99.90
64654;DHT22;51065;48.884;12.598;2022-10-17T16:32:52;15.20;99.90
64654;DHT22;51065;48.884;12.598;2022-10-17T16:35:29;15.00;99.90
64654;DHT22;51065;48.884;12.598;2022-10-17T16:37:55;14.90;99.90
64654;DHT22;51065;48.884;12.598;2022-10-17T16:40:22;14.70;99.90
64654;DHT22;51065;48.884;12.598;2022-10-17T16:42:48;14.60;99.90
64654;DHT22;51065;48.884;12.598;2022-10-17T16:45:19;14.50;99.90
64654;DHT22;51065;48.884;12.598;2022-10-17T16:47:45;14.40;99.90
64654;DHT22;51065;48.884;12.598;2022-10-17T16:50:12;14.30;99.90
64654;DHT22;51065;48.884;12.598;2022-10-17T16:52:37;14.20;99.90
64654;DHT22;51065;48.884;12.598;2022-10-17T16:55:04;14.20;99.90
64654;DHT22;51065;48.884;12.598;2022-10-17T16:57:29;14.10;99.90
64654;DHT22;51065;48.884;12.598;2022-10-17T16:59:55;14.10;99.90
64654;DHT22;51065;48.884;12.598;2022-10-17T17:02:20;14.00;99.90
64654;DHT22;51065;48.884;12.598;2022-10-17T17:04:46;13.90;99.90
64654;DHT22;51065;48.884;12.598;2022-10-17T17:07:12;13.90;99.90
64654;DHT22;51065;48.884;12.598;2022-10-17T17:09:38;13.90;99.90
64654;DHT22;51065;48.884;12.598;2022-10-17T17:12:04;13.80;99.90
64654;DHT22;51065;48.884;12.598;2022-10-17T17:14:30;13.70;99.90
64654;DHT22;51065;48.884;12.598;2022-10-17T17:16:55;13.60;99.90
64654;DHT22;51065;48.884;12.598;2022-10-17T17:19:21;13.60;99.90
64654;DHT22;51065;48.884;12.598;2022-10-17T17:21:47;13.50;99.90
64654;DHT22;51065;48.884;12.598;2022-10-17T17:24:16;13.50;99.90
64654;DHT22;51065;48.884;12.598;2022-10-17T17:26:42;13.50;99.90
64654;DHT22;51065;48.884;12.598;2022-10-17T17:29:08;13.40;99.90
64654;DHT22;51065;48.884;12.598;2022-10-17T17:31:34;13.30;99.90
64654;DHT22;51065;48.884;12.598;2022-10-17T17:34:01;13.30;99.90
64654;DHT22;51065;48.884;12.598;2022-10-17T17:36:35;13.30;99.90
64654;DHT22;51065;48.884;12.598;2022-10-17T17:39:06;13.20;99.90
64654;DHT22;51065;48.884;12.598;2022-10-17T17:41:32;13.30;99.90
64654;DHT22;51065;48.884;12.598;2022-10-17T17:44:00;13.50;99.90
64654;DHT22;51065;48.884;12.598;2022-10-17T17:46:26;13.60;99.90